Terminal Aerodrome Forecast
Issued by NWS Newport/Morehead City, NC

Home | Current Version | Previous Version | Graphics & Text | Print | Product List | Glossary On
Versions: 1 2 3 4 5 6 7 8 9 10 11 12
765
FTUS42 KMHX 201215 AAA
TAFEWN
TAF AMD
KEWN 201215Z 2012/2112 20005KT P6SM SCT035
     FM201700 23007KT P6SM VCSH SCT045
     FM210000 21005KT P6SM SCT040=

USA.gov is the U.S. government's official web portal to all federal, state and local government web resources and services.